createdAt,value
2018-06-21T00:01:33.940Z,62.97
2018-06-21T00:04:02.552Z,63.63
2018-06-21T00:06:31.288Z,64.20
2018-06-21T00:08:59.772Z,64.06
2018-06-21T00:11:28.471Z,64.24
2018-06-21T00:13:57.381Z,64.70
2018-06-21T00:16:26.112Z,64.41
2018-06-21T00:18:54.494Z,65.36
2018-06-21T00:21:23.177Z,64.98
2018-06-21T00:23:51.544Z,65.85
2018-06-21T00:26:20.147Z,65.29
2018-06-21T00:28:48.684Z,65.34
2018-06-21T00:31:17.154Z,65.12
2018-06-21T00:33:45.823Z,65.26
2018-06-21T00:36:14.487Z,66.43
2018-06-21T00:38:43.164Z,66.89
2018-06-21T00:41:11.839Z,65.90
2018-06-21T00:43:40.616Z,67.07
2018-06-21T00:46:09.220Z,66.95
2018-06-21T00:48:37.740Z,66.87
2018-06-21T00:51:06.279Z,66.97
2018-06-21T00:53:34.680Z,67.34
2018-06-21T00:56:15.091Z,66.65
2018-06-21T00:58:44.142Z,66.97
2018-06-21T01:01:13.109Z,67.32
2018-06-21T01:03:41.727Z,67.21
2018-06-21T01:06:10.085Z,67.65
2018-06-21T01:08:38.508Z,68.04
2018-06-21T01:11:07.179Z,67.53
2018-06-21T01:13:35.629Z,67.45
2018-06-21T01:16:04.369Z,68.22
2018-06-21T01:18:32.623Z,68.03
2018-06-21T01:21:01.052Z,68.47
2018-06-21T01:23:29.626Z,68.91
2018-06-21T01:25:58.284Z,68.12
2018-06-21T01:28:27.094Z,69.10
2018-06-21T01:30:55.837Z,68.35
2018-06-21T01:33:24.221Z,68.18
2018-06-21T01:35:52.683Z,69.10
2018-06-21T01:38:21.408Z,68.49
2018-06-21T01:40:49.883Z,69.06
2018-06-21T01:43:18.444Z,68.89
2018-06-21T01:45:47.063Z,68.58
2018-06-21T01:48:15.558Z,69.42
2018-06-21T01:50:44.508Z,69.54
2018-06-21T01:53:12.983Z,69.10
2018-06-21T01:55:41.623Z,69.57
2018-06-21T01:58:10.018Z,68.89
2018-06-21T02:00:38.522Z,69.62
2018-06-21T02:03:07.108Z,68.90
2018-06-21T02:05:35.694Z,68.94
2018-06-21T02:08:04.352Z,69.39
2018-06-21T02:10:32.984Z,69.91
2018-06-21T02:13:01.821Z,69.87
2018-06-21T02:15:30.358Z,70.17
2018-06-21T02:17:59.147Z,70.86
2018-06-21T02:20:27.930Z,70.50
2018-06-21T02:22:56.390Z,70.60
2018-06-21T02:25:25.074Z,71.34
2018-06-21T02:27:53.458Z,70.98
2018-06-21T02:30:21.890Z,70.58
2018-06-21T02:32:50.163Z,70.79
2018-06-21T02:35:18.404Z,70.82
2018-06-21T02:37:47.108Z,71.85
2018-06-21T02:40:15.506Z,71.10
2018-06-21T02:42:43.760Z,71.36
2018-06-21T02:45:12.317Z,71.23
2018-06-21T02:47:41.003Z,71.00
2018-06-21T02:50:09.488Z,71.33
2018-06-21T02:52:38.200Z,70.54
2018-06-21T02:55:07.147Z,69.97
2018-06-21T02:57:35.790Z,70.06
2018-06-21T03:00:04.331Z,70.45
2018-06-21T03:02:32.878Z,70.15
2018-06-21T03:05:01.498Z,69.53
2018-06-21T03:07:30.050Z,69.74
2018-06-21T03:09:58.660Z,69.93
2018-06-21T03:12:27.581Z,69.48
2018-06-21T03:14:55.968Z,69.83
2018-06-21T03:17:24.524Z,69.42
2018-06-21T03:19:53.105Z,69.55
2018-06-21T03:22:21.820Z,69.95
2018-06-21T03:24:50.257Z,69.57
2018-06-21T03:27:19.148Z,69.99
2018-06-21T03:29:47.549Z,70.02
2018-06-21T03:32:16.028Z,69.80
2018-06-21T03:34:44.729Z,68.94
2018-06-21T03:37:13.567Z,69.65
2018-06-21T03:39:42.436Z,69.68
2018-06-21T03:42:10.970Z,69.18
2018-06-21T03:44:39.512Z,69.36
2018-06-21T03:47:07.991Z,68.37
2018-06-21T03:49:36.242Z,67.92
2018-06-21T03:52:05.336Z,68.21
2018-06-21T03:54:34.075Z,67.69
2018-06-21T03:57:02.584Z,67.77
2018-06-21T03:59:31.216Z,67.21
2018-06-21T04:01:59.681Z,68.10
2018-06-21T04:04:28.097Z,67.39
2018-06-21T04:06:57.038Z,67.28
2018-06-21T04:09:25.597Z,67.40
2018-06-21T04:11:54.054Z,67.12
2018-06-21T04:14:22.360Z,67.78
2018-06-21T04:16:51.401Z,66.97
2018-06-21T04:19:19.924Z,66.95
2018-06-21T04:21:48.344Z,67.58
2018-06-21T04:24:17.468Z,66.98
2018-06-21T04:26:45.979Z,66.84
2018-06-21T04:29:14.479Z,67.57
2018-06-21T04:31:42.954Z,67.64
2018-06-21T04:34:11.611Z,66.51
2018-06-21T04:36:39.843Z,67.50
2018-06-21T04:39:09.059Z,67.32
2018-06-21T04:41:37.732Z,67.46
2018-06-21T04:44:06.206Z,67.04
2018-06-21T04:46:34.812Z,67.07
2018-06-21T04:49:03.235Z,67.27
2018-06-21T04:51:31.656Z,67.90
2018-06-21T04:54:00.430Z,67.90
2018-06-21T04:56:29.057Z,68.18
2018-06-21T04:58:57.287Z,67.78
2018-06-21T05:01:25.932Z,67.54
2018-06-21T05:03:54.440Z,67.69
2018-06-21T05:06:23.134Z,67.84
2018-06-21T05:08:51.678Z,68.94
2018-06-21T05:11:21.044Z,68.64
2018-06-21T05:13:49.503Z,69.51
2018-06-21T05:16:18.272Z,69.58
2018-06-21T05:18:46.609Z,69.17
2018-06-21T05:21:15.011Z,69.93
2018-06-21T05:23:43.807Z,70.26
2018-06-21T05:26:12.026Z,70.10
2018-06-21T05:28:40.701Z,69.55
2018-06-21T05:31:09.328Z,69.48
2018-06-21T05:33:38.005Z,70.00
2018-06-21T05:36:06.467Z,70.85
2018-06-21T05:38:35.347Z,70.71
2018-06-21T05:41:03.919Z,70.54
2018-06-21T05:43:32.485Z,71.80
2018-06-21T05:46:00.950Z,72.55
2018-06-21T05:48:29.693Z,72.31
2018-06-21T05:50:58.262Z,72.36
2018-06-21T05:53:26.776Z,72.43
2018-06-21T05:55:55.389Z,73.04
2018-06-21T05:58:24.049Z,73.41
2018-06-21T06:00:53.473Z,73.21
2018-06-21T06:03:22.349Z,74.28
2018-06-21T06:05:51.326Z,74.44
2018-06-21T06:08:20.041Z,74.46
2018-06-21T06:10:49.355Z,73.97
2018-06-21T06:13:17.832Z,74.39
2018-06-21T06:15:46.365Z,73.89
2018-06-21T06:18:14.908Z,73.30
2018-06-21T06:20:43.426Z,72.52
2018-06-21T06:23:12.216Z,73.20
2018-06-21T06:25:40.592Z,72.09
2018-06-21T06:28:08.959Z,73.22
2018-06-21T06:30:37.416Z,72.40
2018-06-21T06:33:05.953Z,71.98
2018-06-21T06:35:34.344Z,72.88
2018-06-21T06:38:03.091Z,72.05
2018-06-21T06:40:31.634Z,73.06
2018-06-21T06:43:00.576Z,72.55
2018-06-21T06:45:29.503Z,71.82
2018-06-21T06:47:58.115Z,72.76
2018-06-21T06:50:26.682Z,71.82
2018-06-21T06:52:55.238Z,70.42
2018-06-21T06:55:23.792Z,71.09
2018-06-21T06:57:52.058Z,68.78
2018-06-21T07:00:20.733Z,67.76
2018-06-21T07:02:49.436Z,68.88
2018-06-21T07:05:18.085Z,69.00
2018-06-21T07:07:46.543Z,69.56
2018-06-21T07:10:15.206Z,68.94
2018-06-21T07:12:43.725Z,67.23
2018-06-21T07:15:12.387Z,67.22
2018-06-21T07:17:40.850Z,66.61
2018-06-21T07:20:09.263Z,65.41
2018-06-21T07:22:37.755Z,66.09
2018-06-21T07:25:06.267Z,66.64
2018-06-21T07:27:34.784Z,67.06
2018-06-21T07:30:05.258Z,65.25
2018-06-21T07:32:33.984Z,62.00
2018-06-21T07:35:02.367Z,60.97
2018-06-21T07:37:30.604Z,59.55
2018-06-21T07:39:59.082Z,59.28
2018-06-21T07:42:27.541Z,58.50
2018-06-21T07:44:55.953Z,58.26
2018-06-21T07:47:24.638Z,58.95
2018-06-21T07:49:53.245Z,58.46
2018-06-21T07:52:22.109Z,59.25
2018-06-21T07:54:50.561Z,60.67
2018-06-21T07:57:19.192Z,60.50
2018-06-21T07:59:47.745Z,60.81
2018-06-21T08:02:16.658Z,61.08
2018-06-21T08:04:45.092Z,59.36
2018-06-21T08:07:13.810Z,60.08
2018-06-21T08:09:42.387Z,59.40
2018-06-21T08:12:10.921Z,58.05
2018-06-21T08:14:39.542Z,57.76
2018-06-21T08:17:08.379Z,58.23
2018-06-21T08:19:36.957Z,59.54
2018-06-21T08:22:05.526Z,59.28
2018-06-21T08:24:34.192Z,57.72
2018-06-21T08:27:02.615Z,56.75
2018-06-21T08:29:31.291Z,56.73
2018-06-21T08:31:59.726Z,58.13
2018-06-21T08:34:29.366Z,58.62
2018-06-21T08:36:57.933Z,59.02
2018-06-21T08:39:26.787Z,58.25
2018-06-21T08:41:55.344Z,57.36
2018-06-21T08:44:23.854Z,58.32
2018-06-21T08:46:52.264Z,56.97
2018-06-21T08:49:20.818Z,56.13
2018-06-21T08:51:49.181Z,55.32
2018-06-21T08:54:17.551Z,54.89
2018-06-21T08:56:46.229Z,52.91
2018-06-21T08:59:14.686Z,51.80
2018-06-21T09:01:43.276Z,52.50
2018-06-21T09:04:11.866Z,52.30
2018-06-21T09:06:40.436Z,52.48
2018-06-21T09:09:09.880Z,52.31
2018-06-21T09:11:38.618Z,51.86
2018-06-21T09:14:07.139Z,52.07
2018-06-21T09:16:35.832Z,53.33
2018-06-21T09:19:04.784Z,54.72
2018-06-21T09:21:33.193Z,53.76
2018-06-21T09:47:34.750Z,50.93
2018-06-21T09:50:07.131Z,50.19
2018-06-21T09:52:39.041Z,48.27
2018-06-21T09:55:11.153Z,48.23
2018-06-21T09:57:42.346Z,45.52
2018-06-21T10:00:17.552Z,45.88
2018-06-21T10:02:48.672Z,46.06
2018-06-21T10:05:19.776Z,44.17
2018-06-21T10:10:49.509Z,43.36
2018-06-21T10:13:18.009Z,43.28
2018-06-21T10:18:47.208Z,43.45
2018-06-21T10:21:16.388Z,45.87
2018-06-21T10:23:44.996Z,47.33
2018-06-21T10:26:13.851Z,45.45
2018-06-21T10:28:42.168Z,43.60
2018-06-21T10:31:11.015Z,43.42
2018-06-21T10:33:39.715Z,41.17
2018-06-21T10:36:08.560Z,42.49
2018-06-21T10:38:37.046Z,41.72
2018-06-21T10:41:05.910Z,42.40
2018-06-21T10:43:34.519Z,40.66
2018-06-21T10:46:03.103Z,40.98
2018-06-21T10:48:31.684Z,39.59
2018-06-21T10:51:00.315Z,39.55
2018-06-21T10:53:28.824Z,39.27
2018-06-21T10:55:57.413Z,39.13
2018-06-21T10:58:26.332Z,40.03
2018-06-21T11:00:55.406Z,38.45
2018-06-21T11:03:24.531Z,37.00
2018-06-21T11:08:55.449Z,38.42
2018-06-21T11:11:23.768Z,39.65
2018-06-21T11:13:52.298Z,39.01
2018-06-21T11:16:21.070Z,38.00
2018-06-21T11:18:49.667Z,36.26
2018-06-21T11:21:18.695Z,37.22
2018-06-21T11:23:47.808Z,37.92
2018-06-21T11:26:17.389Z,38.58
2018-06-21T11:28:45.887Z,37.86
2018-06-21T11:31:14.613Z,37.33
2018-06-21T11:33:43.362Z,36.88
2018-06-21T11:36:11.825Z,36.60
2018-06-21T11:38:40.863Z,34.20
2018-06-21T11:41:09.391Z,35.58
2018-06-21T11:43:40.538Z,35.14
2018-06-21T11:46:09.155Z,37.27
2018-06-21T11:48:37.937Z,36.50
2018-06-21T11:51:06.887Z,37.21
2018-06-21T11:53:35.505Z,36.48
2018-06-21T11:56:04.274Z,34.81
2018-06-21T11:58:32.765Z,35.60
2018-06-21T12:01:01.490Z,35.82
2018-06-21T12:03:29.912Z,37.11
2018-06-21T12:05:58.629Z,36.89
2018-06-21T12:08:27.040Z,36.62
2018-06-21T12:10:55.700Z,37.13
2018-06-21T12:13:24.279Z,36.89
2018-06-21T12:15:53.029Z,35.36
2018-06-21T12:18:21.660Z,34.66
2018-06-21T12:20:50.381Z,35.25
2018-06-21T12:23:19.149Z,36.53
2018-06-21T12:25:47.496Z,35.62
2018-06-21T12:28:16.300Z,35.61
2018-06-21T12:30:44.822Z,34.43
2018-06-21T12:33:13.453Z,34.31
2018-06-21T12:35:41.992Z,35.44
2018-06-21T12:38:10.628Z,35.40
2018-06-21T12:40:39.123Z,36.74
2018-06-21T12:43:07.798Z,36.76
2018-06-21T12:45:36.456Z,36.01
2018-06-21T12:48:05.327Z,36.44
2018-06-21T12:50:34.094Z,35.27
2018-06-21T12:53:02.515Z,36.31
2018-06-21T12:55:31.135Z,35.40
2018-06-21T12:57:59.563Z,36.13
2018-06-21T13:00:28.257Z,37.94
2018-06-21T13:02:57.002Z,35.54
2018-06-21T13:05:25.790Z,36.52
2018-06-21T13:07:54.483Z,36.27
2018-06-21T13:10:39.848Z,37.41
2018-06-21T13:13:24.924Z,37.34
2018-06-21T13:15:53.716Z,38.51
2018-06-21T13:18:22.469Z,38.28
2018-06-21T13:20:50.940Z,38.61
2018-06-21T13:23:19.570Z,37.99
2018-06-21T13:25:51.847Z,37.60
2018-06-21T13:28:22.174Z,39.15
2018-06-21T13:30:50.848Z,39.29
2018-06-21T13:33:20.826Z,38.91
2018-06-21T13:35:50.593Z,39.06
2018-06-21T13:38:19.147Z,36.35
2018-06-21T13:40:49.736Z,35.41
2018-06-21T13:43:18.397Z,35.43
2018-06-21T13:45:48.765Z,34.27
2018-06-21T13:48:19.828Z,35.23
2018-06-21T13:50:48.433Z,35.26
2018-06-21T13:53:17.081Z,35.62
2018-06-21T13:55:46.241Z,36.25
2018-06-21T13:58:15.998Z,36.54
2018-06-21T14:00:46.099Z,36.92
2018-06-21T14:03:15.020Z,36.90
2018-06-21T14:05:43.909Z,35.79
2018-06-21T14:08:15.619Z,34.85
2018-06-21T14:10:44.207Z,35.17
2018-06-21T14:13:14.692Z,35.13
2018-06-21T14:15:45.583Z,35.92
2018-06-21T14:18:14.124Z,35.70
2018-06-21T14:20:42.877Z,37.22
2018-06-21T14:23:11.439Z,36.08
2018-06-21T14:25:40.490Z,35.64
2018-06-21T14:28:09.468Z,35.60
2018-06-21T14:30:38.254Z,35.45
2018-06-21T14:33:06.997Z,35.63
2018-06-21T14:35:35.444Z,36.62
2018-06-21T14:38:04.063Z,36.70
2018-06-21T14:40:32.538Z,37.04
2018-06-21T14:43:01.397Z,37.57
2018-06-21T14:45:29.880Z,36.87
2018-06-21T14:47:58.384Z,37.73
2018-06-21T14:50:27.483Z,36.50
2018-06-21T14:52:56.356Z,37.01
2018-06-21T14:55:24.996Z,38.53
2018-06-21T14:57:53.644Z,38.04
2018-06-21T15:00:22.101Z,38.52
2018-06-21T15:02:50.978Z,39.24
2018-06-21T15:05:19.561Z,39.58
2018-06-21T15:07:48.329Z,39.69
2018-06-21T15:10:16.865Z,39.02
2018-06-21T15:12:45.421Z,39.48
2018-06-21T15:15:13.965Z,38.42
2018-06-21T15:17:42.323Z,38.51
2018-06-21T15:20:10.953Z,37.94
2018-06-21T15:22:39.635Z,38.29
2018-06-21T15:25:08.454Z,39.50
2018-06-21T15:27:37.290Z,39.41
2018-06-21T15:30:05.891Z,39.83
2018-06-21T15:32:34.473Z,39.66
2018-06-21T15:35:02.961Z,41.11
2018-06-21T15:37:31.761Z,40.92
2018-06-21T15:40:00.168Z,41.63
2018-06-21T15:42:28.547Z,41.78
2018-06-21T15:44:57.244Z,41.22
2018-06-21T15:47:26.231Z,40.43
2018-06-21T15:49:54.826Z,40.57
2018-06-21T15:52:23.627Z,39.41
2018-06-21T15:54:52.395Z,40.96
2018-06-21T15:57:21.094Z,40.46
2018-06-21T15:59:49.680Z,40.74
2018-06-21T16:02:18.776Z,41.71
2018-06-21T16:04:47.193Z,41.21
2018-06-21T16:07:15.775Z,40.79
2018-06-21T16:09:44.708Z,41.02
2018-06-21T16:12:13.571Z,41.24
2018-06-21T16:14:42.169Z,41.72
2018-06-21T16:17:10.680Z,41.92
2018-06-21T16:19:39.519Z,42.48
2018-06-21T16:22:09.434Z,42.17
2018-06-21T16:24:38.213Z,42.64
2018-06-21T16:27:10.697Z,43.32
2018-06-21T16:29:46.952Z,43.87
2018-06-21T16:32:15.397Z,45.48
2018-06-21T16:34:43.992Z,45.70
2018-06-21T16:37:12.889Z,45.44
2018-06-21T16:39:41.396Z,44.07
2018-06-21T16:42:11.117Z,44.34
2018-06-21T16:44:39.824Z,45.15
2018-06-21T16:47:08.463Z,43.19
2018-06-21T16:49:36.915Z,44.23
2018-06-21T16:52:05.888Z,44.69
2018-06-21T16:54:34.446Z,44.85
2018-06-21T16:57:07.538Z,44.72
2018-06-21T16:59:36.174Z,44.62
2018-06-21T17:02:04.846Z,44.57
2018-06-21T17:04:33.340Z,45.28
2018-06-21T17:07:01.948Z,45.67
2018-06-21T17:09:30.589Z,46.21
2018-06-21T17:11:59.069Z,45.97
2018-06-21T17:14:27.580Z,45.91
2018-06-21T17:16:56.357Z,47.50
2018-06-21T17:19:24.984Z,47.21
2018-06-21T17:21:53.414Z,47.89
2018-06-21T17:24:21.847Z,47.72
2018-06-21T17:26:50.496Z,48.61
2018-06-21T17:29:19.118Z,49.56
2018-06-21T17:31:47.918Z,49.83
2018-06-21T17:34:16.736Z,50.19
2018-06-21T17:36:45.371Z,49.36
2018-06-21T17:39:14.070Z,48.68
2018-06-21T17:41:42.390Z,48.45
2018-06-21T17:44:11.152Z,47.38
2018-06-21T17:46:39.798Z,47.89
2018-06-21T17:51:29.018Z,46.35
2018-06-21T17:53:58.107Z,46.15
2018-06-21T17:56:26.934Z,46.30
2018-06-21T17:58:55.981Z,43.88
2018-06-21T18:01:24.235Z,43.03
2018-06-21T18:03:52.775Z,44.19
2018-06-21T18:06:21.999Z,44.51
2018-06-21T18:08:50.974Z,46.52
2018-06-21T18:11:19.418Z,47.47
2018-06-21T18:13:49.365Z,48.42
2018-06-21T18:16:18.180Z,48.20
2018-06-21T18:18:46.686Z,47.12
2018-06-21T18:21:15.456Z,47.87
2018-06-21T18:23:44.200Z,47.78
2018-06-21T18:26:12.682Z,47.33
2018-06-21T18:28:41.245Z,47.42
2018-06-21T18:31:09.857Z,48.29
2018-06-21T18:33:38.520Z,48.36
2018-06-21T18:36:07.015Z,49.94
2018-06-21T18:38:35.452Z,48.80
2018-06-21T18:41:04.225Z,48.93
2018-06-21T18:43:33.025Z,49.31
2018-06-21T18:46:01.706Z,49.12
2018-06-21T18:48:30.190Z,49.03
2018-06-21T18:50:58.804Z,49.52
2018-06-21T18:53:27.488Z,50.46
2018-06-21T18:55:56.253Z,51.07
2018-06-21T18:58:24.829Z,50.68
2018-06-21T19:00:53.346Z,51.11
2018-06-21T19:03:22.117Z,52.21
2018-06-21T19:05:51.044Z,51.97
2018-06-21T19:08:25.649Z,52.79
2018-06-21T19:11:00.426Z,52.92
2018-06-21T19:13:29.544Z,53.17
2018-06-21T19:15:58.420Z,53.17
2018-06-21T19:18:26.994Z,52.67
2018-06-21T19:20:55.892Z,53.26
2018-06-21T19:23:24.474Z,54.09
2018-06-21T19:25:53.273Z,54.29
2018-06-21T19:28:21.969Z,53.67
2018-06-21T19:30:50.538Z,52.10
2018-06-21T19:33:19.866Z,51.43
2018-06-21T19:35:48.537Z,51.45
2018-06-21T19:38:17.113Z,52.04
2018-06-21T19:40:46.107Z,53.26
2018-06-21T19:43:15.020Z,52.95
2018-06-21T19:45:43.521Z,53.78
2018-06-21T19:48:12.180Z,53.80
2018-06-21T19:50:40.907Z,53.28
2018-06-21T19:53:09.429Z,54.18
2018-06-21T19:55:38.168Z,54.43
2018-06-21T19:58:06.733Z,55.43
2018-06-21T20:00:35.291Z,54.92
2018-06-21T20:03:04.042Z,54.60
2018-06-21T20:05:32.854Z,55.03
2018-06-21T20:08:01.523Z,55.27
2018-06-21T20:10:30.421Z,54.60
2018-06-21T20:12:59.292Z,54.65
2018-06-21T20:15:27.928Z,55.18
2018-06-21T20:17:56.511Z,55.45
2018-06-21T20:20:30.666Z,55.92
2018-06-21T20:22:59.615Z,55.84
2018-06-21T20:25:28.684Z,56.31
2018-06-21T20:27:57.603Z,56.15
2018-06-21T20:30:26.686Z,57.37
2018-06-21T20:32:55.327Z,56.94
2018-06-21T20:35:23.883Z,57.09
2018-06-21T20:37:52.685Z,57.32
2018-06-21T20:40:21.422Z,56.09
2018-06-21T20:42:50.268Z,56.61
2018-06-21T20:45:19.071Z,55.88
2018-06-21T20:47:47.708Z,56.60
2018-06-21T20:50:16.437Z,56.15
2018-06-21T20:52:45.029Z,56.68
2018-06-21T20:55:14.194Z,56.54
2018-06-21T20:57:43.183Z,56.83
2018-06-21T21:00:11.676Z,57.71
2018-06-21T21:02:40.085Z,57.53
2018-06-21T21:05:12.312Z,57.74
2018-06-21T21:07:41.600Z,58.19
2018-06-21T21:10:12.123Z,58.22
2018-06-21T21:12:40.884Z,58.56
2018-06-21T21:15:10.481Z,58.13
2018-06-21T21:17:38.957Z,57.61
2018-06-21T21:20:07.832Z,58.08
2018-06-21T21:22:42.088Z,58.38
2018-06-21T21:25:10.638Z,58.45
2018-06-21T21:27:39.196Z,58.18
2018-06-21T21:30:09.238Z,58.87
2018-06-21T21:32:37.765Z,58.56
2018-06-21T21:35:06.306Z,57.32
2018-06-21T21:37:35.000Z,58.28
2018-06-21T21:40:05.121Z,57.69
2018-06-21T21:42:35.035Z,57.60
2018-06-21T21:45:03.602Z,57.60
2018-06-21T21:47:32.191Z,57.44
2018-06-21T21:50:00.671Z,57.76
2018-06-21T21:52:29.247Z,58.25
2018-06-21T21:54:58.007Z,58.29
2018-06-21T21:57:26.616Z,58.65
2018-06-21T21:59:55.510Z,58.53
2018-06-21T22:02:24.848Z,58.47
2018-06-21T22:04:53.418Z,58.53
2018-06-21T22:07:22.097Z,58.67
2018-06-21T22:09:50.587Z,58.63
2018-06-21T22:12:18.918Z,58.69
2018-06-21T22:14:47.349Z,58.88
2018-06-21T22:17:16.160Z,58.36
2018-06-21T22:19:44.821Z,58.33
2018-06-21T22:22:13.240Z,58.39
2018-06-21T22:24:41.974Z,58.87
2018-06-21T22:27:10.753Z,59.39
2018-06-21T22:29:39.357Z,58.80
2018-06-21T22:32:08.077Z,59.65
2018-06-21T22:34:36.705Z,59.63
2018-06-21T22:37:05.414Z,59.16
2018-06-21T22:39:34.302Z,59.83
2018-06-21T22:42:02.761Z,59.15
2018-06-21T22:44:32.258Z,58.71
2018-06-21T22:47:03.798Z,58.77
2018-06-21T22:49:32.481Z,58.93
2018-06-21T22:52:00.877Z,58.52
2018-06-21T22:54:29.229Z,58.42
2018-06-21T22:56:57.967Z,59.41
2018-06-21T22:59:30.298Z,58.66
2018-06-21T23:02:06.619Z,59.02
2018-06-21T23:04:35.281Z,59.51
2018-06-21T23:07:08.082Z,59.00
2018-06-21T23:09:36.855Z,60.38
2018-06-21T23:12:05.471Z,59.71
2018-06-21T23:14:34.261Z,59.61
2018-06-21T23:17:07.969Z,59.15
2018-06-21T23:19:40.203Z,59.43
2018-06-21T23:22:08.836Z,59.28
2018-06-21T23:24:37.278Z,59.12
2018-06-21T23:27:06.118Z,58.86
2018-06-21T23:29:34.586Z,58.32
2018-06-21T23:32:03.072Z,58.50
2018-06-21T23:34:31.635Z,57.69
2018-06-21T23:37:00.089Z,57.92
2018-06-21T23:39:28.636Z,58.26
2018-06-21T23:41:57.270Z,57.63
2018-06-21T23:44:25.949Z,58.95
2018-06-21T23:46:54.693Z,58.94
2018-06-21T23:49:23.380Z,59.26
2018-06-21T23:51:52.224Z,58.52
2018-06-21T23:54:20.902Z,58.88
2018-06-21T23:56:49.399Z,58.02
2018-06-21T23:59:17.875Z,58.90
